Latest Coastal Weather Observations for Walpole North

IDW60701

Issued at 2:23 am WST Monday 29 May 2017 (issued every 10 minutes, with the page automatically refreshed every 10 minutes)

About coastal observations | Map of coastal stations | Coastal observations for WA | Marine services | Other Formats
Station Details ID: 009998 Name: NORTH WALPOLE Lat: -34.95 Lon: 116.72 Height: 73.0 m
Data from the previous 72 hours. | See also: Recent months at Walpole North
Date/Time
WST
Temp
°C
Wind Pressure Rain since
9am
mm
Weather Cloud Vis
km
Sea
Height
m
Swell
Dir  Spd
kts
Gust
kts
hPa Trend Height
m
Period
s
Dir
29/02:00am 11.7 NW 6 11 1024.7 - 0.0 - - - - - - -
29/01:30am 11.8 CALM 0 0 1025.0 - 0.0 - - - - - - -
29/01:00am 12.2 CALM 0 0 1024.9 - 0.0 - - - - - - -
29/12:30am 12.5 CALM 0 0 1024.9 - 0.0 - - - - - - -
29/12:00am 12.3 CALM 0 0 1025.3 - 0.0 - - - - - - -
 
Date/Time
WST
Temp
°C
Wind Pressure Rain since
9am
mm
Weather Cloud Vis
km
Sea
Height
m
Swell
Dir  Spd
kts
Gust
kts
hPa Trend Height
m
Period
s
Dir
28/11:30pm 12.6 CALM 0 0 1025.4 - 0.0 - - - - - - -
28/11:00pm 12.3 CALM 0 0 1025.5 - 0.0 - - - - - - -
28/10:30pm 12.1 CALM 0 0 1025.8 - 0.0 - - - - - - -
28/10:00pm 12.0 CALM 0 0 1025.9 - 0.0 - - - - - - -
28/09:30pm 11.7 CALM 0 0 1026.2 - 0.0 - - - - - - -
28/09:00pm 12.4 CALM 0 0 1026.2 - 0.0 - - - - - - -
28/08:30pm 12.6 CALM 0 2 1026.0 - 0.0 - - - - - - -
28/08:00pm 12.3 CALM 0 0 1026.1 - 0.0 - - - - - - -
28/07:30pm 12.1 CALM 0 0 1026.0 - 0.0 - - - - - - -
28/07:00pm 12.1 CALM 0 0 1026.0 - 0.0 - - - - - - -
28/06:30pm 12.0 CALM 0 0 1025.7 - 0.0 - - - - - - -
28/06:00pm 11.8 CALM 0 0 1025.6 - 0.0 - - - - - - -
28/05:30pm 12.0 CALM 0 0 1025.5 - 0.0 - - - - - - -
28/05:00pm 12.9 CALM 0 0 1025.3 - 0.0 - - - - - - -
28/04:30pm 13.8 CALM 0 0 1025.2 - 0.0 - - - - - - -
28/04:00pm 14.2 CALM 0 0 1025.1 - 0.0 - - - - - - -
28/03:30pm 14.5 CALM 0 0 1025.1 - 0.0 - - - - - - -
28/03:00pm 14.7 WNW 1 8 1025.1 - 0.0 - - - - - - -
28/02:30pm 14.8 WNW 2 7 1025.3 - 0.0 - - - - - - -
28/02:00pm 14.7 W 3 8 1025.5 - 0.0 - - - - - - -
28/01:30pm 14.8 CALM 0 0 1025.5 - 0.0 - - - - - - -
28/01:00pm 14.8 CALM 0 0 1025.8 - 0.0 - - - - - - -
28/12:30pm 14.7 CALM 0 0 1026.2 - 0.0 - - - - - - -
28/12:00pm 14.2 CALM 0 0 1026.5 - 0.0 - - - - - - -
28/11:30am 13.6 CALM 0 0 1026.9 - 0.0 - - - - - - -
28/11:00am 12.6 CALM 0 0 1027.2 - 0.0 - - - - - - -
28/10:30am 12.8 CALM 0 0 1027.5 - 0.0 - - - - - - -
28/10:00am 12.5 CALM 0 0 1027.7 - 0.0 - - - - - - -
28/09:30am 11.7 CALM 0 0 1027.8 - 0.0 - - - - - - -
28/09:00am 11.2 CALM 0 0 1027.8 - 1.2 - - - - - - -
28/08:30am 10.9 CALM 0 0 1027.3 - 1.2 - - - - - - -
28/08:00am 10.4 CALM 0 0 1027.2 - 1.2 - - - - - - -
28/07:30am 10.2 CALM 0 0 1026.8 - 1.2 - - - - - - -
28/07:00am 9.9 CALM 0 0 1026.6 - 1.2 - - - - - - -
28/06:30am 9.6 CALM 0 0 1026.2 - 1.2 - - - - - - -
28/06:00am 9.7 CALM 0 0 1025.9 - 1.2 - - - - - - -
28/05:30am 9.3 CALM 0 0 1025.8 - 1.2 - - - - - - -
28/05:00am 9.7 CALM 0 0 1025.8 - 1.2 - - - - - - -
28/04:30am 10.7 CALM 0 0 1025.8 - 1.2 - - - - - - -
28/04:00am 10.4 CALM 0 0 1026.2 - 1.2 - - - - - - -
28/03:30am 10.3 CALM 0 0 1026.5 - 1.0 - - - - - - -
28/03:00am 10.3 CALM 0 0 1026.6 - 1.0 - - - - - - -
28/02:30am 10.1 CALM 0 0 1026.7 - 1.0 - - - - - - -
28/02:00am 10.9 CALM 0 0 1026.5 - 1.0 - - - - - - -
28/01:30am 11.2 CALM 0 0 1026.5 - 1.0 - - - - - - -
28/01:00am 11.1 CALM 0 0 1026.6 - 1.0 - - - - - - -
28/12:30am 11.1 CALM 0 0 1026.8 - 0.8 - - - - - - -
28/12:00am 11.1 CALM 0 0 1026.8 - 0.8 - - - - - - -
 
Date/Time
WST
Temp
°C
Wind Pressure Rain since
9am
mm
Weather Cloud Vis
km
Sea
Height
m
Swell
Dir  Spd
kts
Gust
kts
hPa Trend Height
m
Period
s
Dir
27/11:30pm 10.9 CALM 0 0 1026.9 - 0.8 - - - - - - -
27/11:00pm 11.2 CALM 0 0 1027.0 - 0.8 - - - - - - -
27/10:30pm 11.3 CALM 0 0 1027.0 - 0.8 - - - - - - -
27/10:00pm 11.3 CALM 0 0 1027.1 - 0.8 - - - - - - -
27/09:30pm 11.2 CALM 0 0 1027.1 - 0.8 - - - - - - -
27/09:00pm 11.1 CALM 0 0 1027.3 - 0.8 - - - - - - -
27/08:30pm 10.9 CALM 0 0 1027.1 - 0.8 - - - - - - -
27/08:00pm 10.7 CALM 0 0 1027.0 - 0.8 - - - - - - -
27/07:30pm 11.5 CALM 0 0 1026.8 - 0.8 - - - - - - -
27/07:00pm 12.0 CALM 0 0 1026.6 - 0.8 - - - - - - -
27/06:30pm 11.9 CALM 0 0 1026.6 - 0.4 - - - - - - -
27/06:00pm 12.3 CALM 0 0 1026.2 - 0.4 - - - - - - -
27/05:30pm 13.0 CALM 0 3 1026.1 - 0.4 - - - - - - -
27/05:00pm 13.6 CALM 0 0 1026.1 - 0.4 - - - - - - -
27/04:30pm 13.9 CALM 0 0 1026.1 - 0.4 - - - - - - -
27/04:00pm 14.5 CALM 0 6 1026.0 - 0.4 - - - - - - -
27/03:30pm 15.2 S 1 6 1025.7 - 0.4 - - - - - - -
27/03:00pm 15.3 CALM 0 9 1025.4 - 0.4 - - - - - - -
27/02:30pm 15.4 CALM 0 0 1025.2 - 0.4 - - - - - - -
27/02:00pm 15.7 CALM 0 0 1025.3 - 0.4 - - - - - - -
27/01:30pm 16.4 S 3 8 1025.3 - 0.4 - - - - - - -
27/01:00pm 16.4 CALM 0 4 1025.3 - 0.4 - - - - - - -
27/12:30pm 15.1 CALM 0 0 1025.5 - 0.4 - - - - - - -
27/12:00pm 15.1 SW 2 8 1025.8 - 0.4 - - - - - - -
27/11:30am 14.5 CALM 0 0 1025.9 - 0.4 - - - - - - -
27/11:00am 13.0 CALM 0 0 1026.0 - 0.4 - - - - - - -
27/10:30am 13.0 CALM 0 0 1026.0 - 0.4 - - - - - - -
27/10:00am 13.3 CALM 0 0 1025.9 - 0.0 - - - - - - -
27/09:30am 13.0 CALM 0 1 1025.7 - 0.0 - - - - - - -
27/09:00am 12.4 CALM 0 0 1025.6 - 4.4 - - - - - - -
27/08:30am 11.7 CALM 0 0 1025.4 - 4.4 - - - - - - -
27/08:00am 11.3 CALM 0 0 1025.3 - 4.4 - - - - - - -
27/07:30am 11.0 CALM 0 0 1024.9 - 4.4 - - - - - - -
27/07:00am 10.9 CALM 0 0 1024.6 - 4.4 - - - - - - -
27/06:30am 10.7 CALM 0 0 1024.1 - 4.4 - - - - - - -
27/06:00am 10.7 CALM 0 0 1024.0 - 4.4 - - - - - - -
27/05:30am 10.6 CALM 0 0 1023.7 - 4.4 - - - - - - -
27/05:00am 10.6 CALM 0 0 1023.6 - 4.4 - - - - - - -
27/04:30am 10.6 CALM 0 0 1023.7 - 4.4 - - - - - - -
27/04:00am 10.4 CALM 0 0 1023.6 - 4.4 - - - - - - -
27/03:30am 10.7 CALM 0 0 1023.7 - 3.8 - - - - - - -
27/03:00am 11.1 CALM 0 1 1023.5 - 3.8 Recent precip. - - - - - -
27/02:30am 10.8 CALM 0 0 1023.4 - 3.6 - - - - - - -
27/02:00am 11.0 CALM 0 0 1023.3 - 3.6 - - - - - - -
27/01:30am 11.2 CALM 0 0 1023.4 - 3.6 - - - - - - -
27/01:00am 11.5 CALM 0 6 1023.6 - 3.2 - - - - - - -
27/12:30am 11.6 CALM 0 0 1023.6 - 2.8 - - - - - - -
27/12:00am 12.0 SW 2 8 1023.6 - 2.8 Rain - - - - - -
 
Date/Time
WST
Temp
°C
Wind Pressure Rain since
9am
mm
Weather Cloud Vis
km
Sea
Height
m
Swell
Dir  Spd
kts
Gust
kts
hPa Trend Height
m
Period
s
Dir
26/11:30pm 12.1 SSW 1 8 1023.6 - 1.4 - - - - - - -
26/11:00pm 12.5 WSW 1 7 1023.4 - 1.4 - - - - - - -
26/10:30pm 12.2 CALM 0 5 1023.2 - 1.4 - - - - - - -
26/10:00pm 12.2 CALM 0 0 1023.0 - 1.4 - - - - - - -
26/09:30pm 12.0 CALM 0 0 1022.9 - 1.4 - - - - - - -
26/09:00pm 12.4 CALM 0 1 1022.8 - 1.4 - - - - - - -
26/08:30pm 12.8 CALM 0 6 1022.7 - 1.4 - - - - - - -
26/08:00pm 12.9 CALM 0 7 1022.6 - 1.4 - - - - - - -
26/07:30pm 12.6 CALM 0 0 1022.3 - 1.4 - - - - - - -
26/07:00pm 12.8 CALM 0 0 1022.0 - 1.4 - - - - - - -
26/06:30pm 13.0 CALM 0 1 1021.7 - 1.4 - - - - - - -
26/06:00pm 12.9 CALM 0 2 1021.3 - 1.4 - - - - - - -
26/05:30pm 13.4 SW 3 12 1020.8 - 1.4 - - - - - - -
26/05:00pm 13.4 SW 3 11 1020.7 - 1.4 - - - - - - -
26/04:30pm 13.3 SW 5 13 1020.7 - 1.4 - - - - - - -
26/04:00pm 14.2 SW 2 10 1020.4 - 1.4 - - - - - - -
26/03:30pm 14.8 SSW 3 9 1020.2 - 1.4 - - - - - - -
26/03:00pm 14.3 SW 3 10 1019.9 - 1.4 Recent precip. - - - - - -
26/02:30pm 14.0 SSW 4 13 1019.6 - 1.2 - - - - - - -
26/02:00pm 14.7 SSW 4 13 1019.5 - 1.0 - - - - - - -
26/01:30pm 14.5 SW 5 14 1019.3 - 1.0 - - - - - - -
26/01:00pm 14.4 SSW 10 20 1019.3 - 0.6 - - - - - - -
26/12:30pm 15.4 SW 2 13 1019.3 - 0.4 - - - - - - -
26/12:00pm 16.4 SW 4 15 1019.6 - 0.4 - - - - - - -
26/11:30am 16.0 SW 2 10 1019.9 - 0.4 - - - - - - -
26/11:00am 14.9 WSW 5 11 1020.0 - 0.4 - - - - - - -
26/10:30am 15.1 SW 3 9 1019.9 - 0.4 - - - - - - -
26/10:00am 14.4 WSW 2 9 1019.8 - 0.0 - - - - - - -
26/09:30am 13.9 CALM 0 0 1019.6 - 0.0 - - - - - - -
26/09:00am 12.8 WSW 2 15 1019.5 - 3.2 Rain - - - - - -
26/08:30am 12.5 WSW 1 8 1019.2 - 2.4 - - - - - - -
26/08:00am 12.5 W 3 11 1018.8 - 2.0 - - - - - - -
26/07:30am 12.0 CALM 0 7 1018.4 - 2.0 - - - - - - -
26/07:00am 12.3 CALM 0 0 1018.1 - 1.8 - - - - - - -
26/06:30am 12.7 W 5 14 1017.7 - 1.8 - - - - - - -
26/06:00am 12.9 WSW 7 19 1017.4 - 1.8 - - - - - - -
26/05:30am 13.2 W 1 8 1017.1 - 1.8 - - - - - - -
26/05:00am 13.6 WSW 8 15 1016.8 - 1.8 - - - - - - -
26/04:30am 13.6 WSW 5 11 1016.6 - 1.8 - - - - - - -
26/04:00am 12.8 W 1 9 1016.4 - 1.8 - - - - - - -
26/03:30am 13.3 W 4 14 1016.4 - 1.6 - - - - - - -
26/03:00am 13.6 W 4 14 1016.2 - 1.6 - - - - - - -
26/02:30am 13.6 W 7 14 1016.1 - 1.6 - - - - - - -

Other Formats:

Comma delimited format used in spreadsheet applications
http://www.bom.gov.au/fwo/IDW60701/IDW60701.95647.axf

JavaScript Object Notation format (JSON) in row-major order
http://www.bom.gov.au/fwo/IDW60701/IDW60701.95647.json